sensor_id;sensor_type;location;lat;lon;timestamp;P1;durP1;ratioP1;P2;durP2;ratioP2
19312;SDS011;9791;50.820;4.406;2023-03-23T00:01:01;5.43;;;3.22;;
19312;SDS011;9791;50.820;4.406;2023-03-23T00:03:28;8.18;;;3.30;;
19312;SDS011;9791;50.820;4.406;2023-03-23T00:05:57;7.28;;;3.45;;
19312;SDS011;9791;50.820;4.406;2023-03-23T00:08:29;5.57;;;3.50;;
19312;SDS011;9791;50.820;4.406;2023-03-23T00:10:55;5.90;;;3.10;;
19312;SDS011;9791;50.820;4.406;2023-03-23T00:13:23;8.77;;;3.78;;
19312;SDS011;9791;50.820;4.406;2023-03-23T00:15:49;6.85;;;3.15;;
19312;SDS011;9791;50.820;4.406;2023-03-23T00:18:17;8.43;;;3.20;;
19312;SDS011;9791;50.820;4.406;2023-03-23T00:20:46;6.00;;;3.00;;
19312;SDS011;9791;50.820;4.406;2023-03-23T00:23:14;7.05;;;3.20;;
19312;SDS011;9791;50.820;4.406;2023-03-23T00:25:44;6.25;;;3.33;;
19312;SDS011;9791;50.820;4.406;2023-03-23T00:28:10;6.13;;;3.08;;
19312;SDS011;9791;50.820;4.406;2023-03-23T00:30:38;5.18;;;3.22;;
19312;SDS011;9791;50.820;4.406;2023-03-23T00:33:04;5.55;;;3.30;;
19312;SDS011;9791;50.820;4.406;2023-03-23T00:35:30;6.38;;;3.42;;
19312;SDS011;9791;50.820;4.406;2023-03-23T00:37:56;6.40;;;3.75;;
19312;SDS011;9791;50.820;4.406;2023-03-23T00:40:24;4.95;;;2.80;;
19312;SDS011;9791;50.820;4.406;2023-03-23T00:42:51;6.18;;;3.40;;
19312;SDS011;9791;50.820;4.406;2023-03-23T00:45:17;5.20;;;3.05;;
19312;SDS011;9791;50.820;4.406;2023-03-23T00:47:43;7.05;;;3.45;;
19312;SDS011;9791;50.820;4.406;2023-03-23T00:50:11;6.55;;;3.30;;
19312;SDS011;9791;50.820;4.406;2023-03-23T00:52:38;6.07;;;3.35;;
19312;SDS011;9791;50.820;4.406;2023-03-23T00:55:05;6.03;;;3.13;;
19312;SDS011;9791;50.820;4.406;2023-03-23T00:57:31;8.05;;;3.28;;
19312;SDS011;9791;50.820;4.406;2023-03-23T00:59:57;5.32;;;3.28;;
19312;SDS011;9791;50.820;4.406;2023-03-23T01:02:23;7.47;;;3.00;;
19312;SDS011;9791;50.820;4.406;2023-03-23T01:04:52;5.82;;;3.30;;
19312;SDS011;9791;50.820;4.406;2023-03-23T01:07:21;6.15;;;3.45;;
19312;SDS011;9791;50.820;4.406;2023-03-23T01:09:48;5.32;;;3.00;;
19312;SDS011;9791;50.820;4.406;2023-03-23T01:12:18;5.70;;;3.22;;
19312;SDS011;9791;50.820;4.406;2023-03-23T01:14:44;6.20;;;3.70;;
19312;SDS011;9791;50.820;4.406;2023-03-23T01:17:10;5.60;;;3.25;;
19312;SDS011;9791;50.820;4.406;2023-03-23T01:19:36;6.63;;;3.30;;
19312;SDS011;9791;50.820;4.406;2023-03-23T01:22:02;5.85;;;3.38;;
19312;SDS011;9791;50.820;4.406;2023-03-23T01:24:28;5.70;;;3.28;;
19312;SDS011;9791;50.820;4.406;2023-03-23T01:26:54;5.72;;;3.28;;
19312;SDS011;9791;50.820;4.406;2023-03-23T01:29:20;5.65;;;2.97;;
19312;SDS011;9791;50.820;4.406;2023-03-23T01:31:46;6.32;;;3.35;;
19312;SDS011;9791;50.820;4.406;2023-03-23T01:34:12;5.75;;;3.08;;
19312;SDS011;9791;50.820;4.406;2023-03-23T01:36:38;7.25;;;3.20;;
19312;SDS011;9791;50.820;4.406;2023-03-23T01:39:05;5.03;;;2.97;;
19312;SDS011;9791;50.820;4.406;2023-03-23T01:41:32;6.18;;;3.10;;
19312;SDS011;9791;50.820;4.406;2023-03-23T01:46:31;5.70;;;3.30;;
19312;SDS011;9791;50.820;4.406;2023-03-23T01:48:58;4.93;;;2.85;;
19312;SDS011;9791;50.820;4.406;2023-03-23T01:51:26;6.70;;;3.40;;
19312;SDS011;9791;50.820;4.406;2023-03-23T01:56:20;8.45;;;3.50;;
19312;SDS011;9791;50.820;4.406;2023-03-23T01:58:50;6.82;;;2.70;;
19312;SDS011;9791;50.820;4.406;2023-03-23T02:01:16;4.60;;;2.60;;
19312;SDS011;9791;50.820;4.406;2023-03-23T02:03:42;5.63;;;2.90;;
19312;SDS011;9791;50.820;4.406;2023-03-23T02:06:10;5.28;;;3.00;;
19312;SDS011;9791;50.820;4.406;2023-03-23T02:08:36;9.20;;;3.42;;
19312;SDS011;9791;50.820;4.406;2023-03-23T02:11:08;7.00;;;2.50;;
19312;SDS011;9791;50.820;4.406;2023-03-23T02:13:34;5.95;;;2.60;;
19312;SDS011;9791;50.820;4.406;2023-03-23T02:16:04;5.63;;;2.38;;
19312;SDS011;9791;50.820;4.406;2023-03-23T02:23:40;6.97;;;2.90;;
19312;SDS011;9791;50.820;4.406;2023-03-23T02:28:42;5.55;;;2.60;;
19312;SDS011;9791;50.820;4.406;2023-03-23T02:34:08;5.78;;;2.35;;
19312;SDS011;9791;50.820;4.406;2023-03-23T02:36:38;7.05;;;2.30;;
19312;SDS011;9791;50.820;4.406;2023-03-23T02:41:56;5.78;;;2.25;;
19312;SDS011;9791;50.820;4.406;2023-03-23T02:44:24;6.22;;;2.25;;
19312;SDS011;9791;50.820;4.406;2023-03-23T02:46:54;5.88;;;2.00;;
19312;SDS011;9791;50.820;4.406;2023-03-23T02:49:21;5.28;;;1.95;;
19312;SDS011;9791;50.820;4.406;2023-03-23T02:51:48;5.22;;;1.80;;
19312;SDS011;9791;50.820;4.406;2023-03-23T02:54:16;4.32;;;2.08;;
19312;SDS011;9791;50.820;4.406;2023-03-23T02:56:43;4.45;;;1.98;;
19312;SDS011;9791;50.820;4.406;2023-03-23T02:59:09;5.75;;;1.63;;
19312;SDS011;9791;50.820;4.406;2023-03-23T03:04:11;4.63;;;1.70;;
19312;SDS011;9791;50.820;4.406;2023-03-23T03:07:02;5.82;;;1.58;;
19312;SDS011;9791;50.820;4.406;2023-03-23T03:09:42;5.45;;;1.70;;
19312;SDS011;9791;50.820;4.406;2023-03-23T03:12:13;6.75;;;1.73;;
19312;SDS011;9791;50.820;4.406;2023-03-23T03:14:51;4.38;;;2.03;;
19312;SDS011;9791;50.820;4.406;2023-03-23T03:17:19;6.05;;;1.80;;
19312;SDS011;9791;50.820;4.406;2023-03-23T03:19:49;3.92;;;1.55;;
19312;SDS011;9791;50.820;4.406;2023-03-23T03:22:16;6.35;;;1.67;;
19312;SDS011;9791;50.820;4.406;2023-03-23T03:24:45;6.47;;;1.80;;
19312;SDS011;9791;50.820;4.406;2023-03-23T03:27:14;4.00;;;1.45;;
19312;SDS011;9791;50.820;4.406;2023-03-23T03:29:45;4.32;;;1.60;;
19312;SDS011;9791;50.820;4.406;2023-03-23T03:32:14;5.45;;;1.83;;
19312;SDS011;9791;50.820;4.406;2023-03-23T03:34:42;5.85;;;1.77;;
19312;SDS011;9791;50.820;4.406;2023-03-23T03:37:08;6.03;;;1.77;;
19312;SDS011;9791;50.820;4.406;2023-03-23T03:39:36;5.18;;;2.15;;
19312;SDS011;9791;50.820;4.406;2023-03-23T03:42:03;4.57;;;1.52;;
19312;SDS011;9791;50.820;4.406;2023-03-23T03:44:30;5.10;;;1.63;;
19312;SDS011;9791;50.820;4.406;2023-03-23T03:46:56;8.50;;;2.60;;
19312;SDS011;9791;50.820;4.406;2023-03-23T03:49:22;6.75;;;1.90;;
19312;SDS011;9791;50.820;4.406;2023-03-23T03:51:48;5.53;;;2.25;;
19312;SDS011;9791;50.820;4.406;2023-03-23T03:54:14;9.07;;;2.33;;
19312;SDS011;9791;50.820;4.406;2023-03-23T03:56:41;6.43;;;2.10;;
19312;SDS011;9791;50.820;4.406;2023-03-23T03:59:07;7.15;;;2.28;;
19312;SDS011;9791;50.820;4.406;2023-03-23T04:01:36;5.55;;;1.73;;
19312;SDS011;9791;50.820;4.406;2023-03-23T04:04:03;7.20;;;2.20;;
19312;SDS011;9791;50.820;4.406;2023-03-23T04:06:31;7.82;;;2.13;;
19312;SDS011;9791;50.820;4.406;2023-03-23T04:08:58;6.80;;;2.00;;
19312;SDS011;9791;50.820;4.406;2023-03-23T04:11:26;5.60;;;2.05;;
19312;SDS011;9791;50.820;4.406;2023-03-23T04:13:52;7.47;;;1.80;;
19312;SDS011;9791;50.820;4.406;2023-03-23T04:16:18;6.60;;;1.80;;
19312;SDS011;9791;50.820;4.406;2023-03-23T04:18:46;10.50;;;2.03;;
19312;SDS011;9791;50.820;4.406;2023-03-23T04:21:13;5.05;;;2.00;;
19312;SDS011;9791;50.820;4.406;2023-03-23T04:23:40;8.00;;;2.00;;
19312;SDS011;9791;50.820;4.406;2023-03-23T04:26:07;7.25;;;2.15;;
19312;SDS011;9791;50.820;4.406;2023-03-23T04:28:33;8.30;;;2.10;;
19312;SDS011;9791;50.820;4.406;2023-03-23T04:31:00;10.27;;;1.90;;
19312;SDS011;9791;50.820;4.406;2023-03-23T04:33:27;12.82;;;2.17;;
19312;SDS011;9791;50.820;4.406;2023-03-23T04:35:55;7.05;;;1.90;;
19312;SDS011;9791;50.820;4.406;2023-03-23T04:38:22;6.78;;;1.73;;
19312;SDS011;9791;50.820;4.406;2023-03-23T04:40:50;7.05;;;1.35;;
19312;SDS011;9791;50.820;4.406;2023-03-23T04:43:16;7.82;;;1.98;;
19312;SDS011;9791;50.820;4.406;2023-03-23T04:45:46;6.43;;;1.80;;
19312;SDS011;9791;50.820;4.406;2023-03-23T04:48:12;6.90;;;1.58;;
19312;SDS011;9791;50.820;4.406;2023-03-23T04:50:38;2.95;;;1.20;;
19312;SDS011;9791;50.820;4.406;2023-03-23T04:53:05;4.15;;;1.50;;
19312;SDS011;9791;50.820;4.406;2023-03-23T04:55:31;10.07;;;1.90;;
19312;SDS011;9791;50.820;4.406;2023-03-23T04:58:01;5.38;;;1.70;;
19312;SDS011;9791;50.820;4.406;2023-03-23T05:00:27;7.43;;;1.95;;
19312;SDS011;9791;50.820;4.406;2023-03-23T05:02:54;8.23;;;2.72;;
19312;SDS011;9791;50.820;4.406;2023-03-23T05:05:20;5.55;;;1.90;;
19312;SDS011;9791;50.820;4.406;2023-03-23T05:07:47;8.82;;;1.90;;
19312;SDS011;9791;50.820;4.406;2023-03-23T05:10:13;4.13;;;1.73;;
19312;SDS011;9791;50.820;4.406;2023-03-23T05:12:40;5.40;;;1.80;;
19312;SDS011;9791;50.820;4.406;2023-03-23T05:15:06;7.95;;;2.17;;
19312;SDS011;9791;50.820;4.406;2023-03-23T05:17:32;7.57;;;1.98;;
19312;SDS011;9791;50.820;4.406;2023-03-23T05:19:59;5.03;;;1.55;;
19312;SDS011;9791;50.820;4.406;2023-03-23T05:22:27;5.63;;;1.60;;
19312;SDS011;9791;50.820;4.406;2023-03-23T05:24:57;5.45;;;1.65;;
19312;SDS011;9791;50.820;4.406;2023-03-23T05:27:23;4.40;;;1.55;;
19312;SDS011;9791;50.820;4.406;2023-03-23T05:29:52;4.82;;;2.00;;
19312;SDS011;9791;50.820;4.406;2023-03-23T05:32:18;6.07;;;1.40;;
19312;SDS011;9791;50.820;4.406;2023-03-23T05:34:45;8.80;;;1.80;;
19312;SDS011;9791;50.820;4.406;2023-03-23T05:37:11;8.95;;;1.88;;
19312;SDS011;9791;50.820;4.406;2023-03-23T05:39:38;6.50;;;1.65;;
19312;SDS011;9791;50.820;4.406;2023-03-23T05:42:05;6.88;;;1.83;;
19312;SDS011;9791;50.820;4.406;2023-03-23T05:44:32;5.40;;;1.95;;
19312;SDS011;9791;50.820;4.406;2023-03-23T05:46:58;6.72;;;1.83;;
19312;SDS011;9791;50.820;4.406;2023-03-23T05:49:24;6.25;;;1.65;;
19312;SDS011;9791;50.820;4.406;2023-03-23T05:51:51;3.63;;;1.33;;
19312;SDS011;9791;50.820;4.406;2023-03-23T05:54:18;7.28;;;2.17;;
19312;SDS011;9791;50.820;4.406;2023-03-23T05:56:44;8.57;;;2.55;;
19312;SDS011;9791;50.820;4.406;2023-03-23T05:59:10;5.40;;;1.90;;
19312;SDS011;9791;50.820;4.406;2023-03-23T06:01:37;6.45;;;1.95;;
19312;SDS011;9791;50.820;4.406;2023-03-23T06:04:03;5.00;;;1.70;;
19312;SDS011;9791;50.820;4.406;2023-03-23T06:06:30;5.05;;;1.70;;
19312;SDS011;9791;50.820;4.406;2023-03-23T06:08:57;5.47;;;1.80;;
19312;SDS011;9791;50.820;4.406;2023-03-23T06:11:25;5.20;;;1.80;;
19312;SDS011;9791;50.820;4.406;2023-03-23T06:13:51;7.30;;;2.17;;
19312;SDS011;9791;50.820;4.406;2023-03-23T06:16:18;9.40;;;2.30;;
19312;SDS011;9791;50.820;4.406;2023-03-23T06:18:44;4.78;;;1.75;;
19312;SDS011;9791;50.820;4.406;2023-03-23T06:21:11;5.45;;;1.55;;
19312;SDS011;9791;50.820;4.406;2023-03-23T06:23:38;7.40;;;1.90;;
19312;SDS011;9791;50.820;4.406;2023-03-23T06:26:05;10.65;;;2.20;;
19312;SDS011;9791;50.820;4.406;2023-03-23T06:28:32;7.95;;;1.90;;
19312;SDS011;9791;50.820;4.406;2023-03-23T06:30:59;7.32;;;2.30;;
19312;SDS011;9791;50.820;4.406;2023-03-23T06:33:25;8.82;;;2.03;;
19312;SDS011;9791;50.820;4.406;2023-03-23T06:35:51;7.82;;;2.17;;
19312;SDS011;9791;50.820;4.406;2023-03-23T06:38:17;7.60;;;2.08;;
19312;SDS011;9791;50.820;4.406;2023-03-23T06:40:43;12.02;;;2.33;;
19312;SDS011;9791;50.820;4.406;2023-03-23T06:43:11;7.07;;;2.08;;
19312;SDS011;9791;50.820;4.406;2023-03-23T06:45:38;5.70;;;1.95;;
19312;SDS011;9791;50.820;4.406;2023-03-23T06:48:05;7.20;;;1.80;;
19312;SDS011;9791;50.820;4.406;2023-03-23T06:50:31;9.10;;;2.17;;
19312;SDS011;9791;50.820;4.406;2023-03-23T06:52:57;6.45;;;1.88;;
19312;SDS011;9791;50.820;4.406;2023-03-23T06:55:24;7.72;;;2.08;;
19312;SDS011;9791;50.820;4.406;2023-03-23T06:57:50;10.07;;;1.95;;
19312;SDS011;9791;50.820;4.406;2023-03-23T07:00:16;4.75;;;1.63;;
19312;SDS011;9791;50.820;4.406;2023-03-23T07:02:42;9.73;;;2.40;;
19312;SDS011;9791;50.820;4.406;2023-03-23T07:05:10;6.30;;;1.92;;
19312;SDS011;9791;50.820;4.406;2023-03-23T07:07:36;5.15;;;1.80;;
19312;SDS011;9791;50.820;4.406;2023-03-23T07:10:03;5.72;;;1.88;;
19312;SDS011;9791;50.820;4.406;2023-03-23T07:12:29;7.57;;;2.08;;
19312;SDS011;9791;50.820;4.406;2023-03-23T07:14:55;6.70;;;1.88;;
19312;SDS011;9791;50.820;4.406;2023-03-23T07:17:21;14.23;;;2.10;;
19312;SDS011;9791;50.820;4.406;2023-03-23T07:19:47;7.07;;;2.05;;
19312;SDS011;9791;50.820;4.406;2023-03-23T07:22:13;6.18;;;2.60;;
19312;SDS011;9791;50.820;4.406;2023-03-23T07:24:39;3.75;;;1.40;;
19312;SDS011;9791;50.820;4.406;2023-03-23T07:27:05;3.20;;;1.02;;
19312;SDS011;9791;50.820;4.406;2023-03-23T07:29:32;4.90;;;1.10;;
19312;SDS011;9791;50.820;4.406;2023-03-23T07:32:00;4.75;;;1.35;;
19312;SDS011;9791;50.820;4.406;2023-03-23T07:34:27;3.15;;;1.30;;
19312;SDS011;9791;50.820;4.406;2023-03-23T07:36:53;8.85;;;1.90;;
19312;SDS011;9791;50.820;4.406;2023-03-23T07:39:19;3.58;;;1.65;;
19312;SDS011;9791;50.820;4.406;2023-03-23T07:41:45;5.65;;;2.63;;
19312;SDS011;9791;50.820;4.406;2023-03-23T07:44:11;5.65;;;1.60;;
19312;SDS011;9791;50.820;4.406;2023-03-23T07:46:37;4.35;;;1.60;;
19312;SDS011;9791;50.820;4.406;2023-03-23T07:49:03;5.82;;;1.77;;
19312;SDS011;9791;50.820;4.406;2023-03-23T07:51:30;4.50;;;1.60;;
19312;SDS011;9791;50.820;4.406;2023-03-23T07:53:57;7.47;;;2.03;;
19312;SDS011;9791;50.820;4.406;2023-03-23T07:56:23;4.78;;;1.65;;
19312;SDS011;9791;50.820;4.406;2023-03-23T07:58:49;4.05;;;1.70;;
19312;SDS011;9791;50.820;4.406;2023-03-23T08:01:16;5.55;;;1.80;;
19312;SDS011;9791;50.820;4.406;2023-03-23T08:03:43;5.95;;;1.65;;
19312;SDS011;9791;50.820;4.406;2023-03-23T08:06:09;5.00;;;1.70;;
19312;SDS011;9791;50.820;4.406;2023-03-23T08:08:35;5.10;;;1.52;;
19312;SDS011;9791;50.820;4.406;2023-03-23T08:11:02;3.38;;;1.02;;
19312;SDS011;9791;50.820;4.406;2023-03-23T08:13:28;4.38;;;1.00;;
19312;SDS011;9791;50.820;4.406;2023-03-23T08:15:54;7.10;;;1.52;;
19312;SDS011;9791;50.820;4.406;2023-03-23T08:18:21;2.63;;;1.27;;
19312;SDS011;9791;50.820;4.406;2023-03-23T08:20:47;4.82;;;1.30;;
19312;SDS011;9791;50.820;4.406;2023-03-23T08:23:13;6.63;;;1.20;;
19312;SDS011;9791;50.820;4.406;2023-03-23T08:25:41;2.75;;;1.10;;
19312;SDS011;9791;50.820;4.406;2023-03-23T08:28:08;3.22;;;1.13;;
19312;SDS011;9791;50.820;4.406;2023-03-23T08:30:34;4.13;;;1.40;;
19312;SDS011;9791;50.820;4.406;2023-03-23T08:33:02;4.63;;;1.20;;
19312;SDS011;9791;50.820;4.406;2023-03-23T08:35:29;4.70;;;1.38;;
19312;SDS011;9791;50.820;4.406;2023-03-23T08:37:56;5.60;;;1.05;;
19312;SDS011;9791;50.820;4.406;2023-03-23T08:40:23;2.97;;;1.10;;
19312;SDS011;9791;50.820;4.406;2023-03-23T08:42:49;6.80;;;1.35;;
19312;SDS011;9791;50.820;4.406;2023-03-23T08:45:17;5.18;;;1.92;;
19312;SDS011;9791;50.820;4.406;2023-03-23T08:47:43;2.90;;;1.10;;
19312;SDS011;9791;50.820;4.406;2023-03-23T08:50:11;4.15;;;1.20;;
19312;SDS011;9791;50.820;4.406;2023-03-23T08:52:37;2.50;;;1.10;;
19312;SDS011;9791;50.820;4.406;2023-03-23T08:55:03;3.65;;;1.25;;
19312;SDS011;9791;50.820;4.406;2023-03-23T08:57:30;4.45;;;1.20;;
19312;SDS011;9791;50.820;4.406;2023-03-23T08:59:56;6.70;;;1.52;;
19312;SDS011;9791;50.820;4.406;2023-03-23T09:02:25;6.03;;;1.58;;
19312;SDS011;9791;50.820;4.406;2023-03-23T09:04:52;5.43;;;1.40;;
19312;SDS011;9791;50.820;4.406;2023-03-23T09:07:18;4.47;;;1.38;;
19312;SDS011;9791;50.820;4.406;2023-03-23T09:09:44;3.17;;;1.40;;
19312;SDS011;9791;50.820;4.406;2023-03-23T09:12:10;3.10;;;1.20;;
19312;SDS011;9791;50.820;4.406;2023-03-23T09:14:37;3.42;;;1.20;;
19312;SDS011;9791;50.820;4.406;2023-03-23T09:17:04;3.22;;;1.40;;
19312;SDS011;9791;50.820;4.406;2023-03-23T09:19:31;2.65;;;1.02;;
19312;SDS011;9791;50.820;4.406;2023-03-23T09:21:58;3.42;;;1.20;;
19312;SDS011;9791;50.820;4.406;2023-03-23T09:24:24;4.40;;;1.13;;
19312;SDS011;9791;50.820;4.406;2023-03-23T09:26:51;3.97;;;1.38;;
19312;SDS011;9791;50.820;4.406;2023-03-23T09:29:17;3.15;;;1.17;;
19312;SDS011;9791;50.820;4.406;2023-03-23T09:31:43;3.05;;;1.20;;
19312;SDS011;9791;50.820;4.406;2023-03-23T09:34:11;2.90;;;1.25;;
19312;SDS011;9791;50.820;4.406;2023-03-23T09:36:38;2.00;;;1.00;;
19312;SDS011;9791;50.820;4.406;2023-03-23T09:39:07;2.97;;;1.20;;
19312;SDS011;9791;50.820;4.406;2023-03-23T09:49:33;5.18;;;1.23;;
19312;SDS011;9791;50.820;4.406;2023-03-23T09:52:04;1.95;;;0.82;;
19312;SDS011;9791;50.820;4.406;2023-03-23T09:54:38;2.55;;;0.90;;
19312;SDS011;9791;50.820;4.406;2023-03-23T09:57:11;3.45;;;1.10;;
19312;SDS011;9791;50.820;4.406;2023-03-23T09:59:39;3.15;;;1.05;;
19312;SDS011;9791;50.820;4.406;2023-03-23T10:04:46;3.15;;;1.30;;
19312;SDS011;9791;50.820;4.406;2023-03-23T10:07:13;3.38;;;1.10;;
19312;SDS011;9791;50.820;4.406;2023-03-23T10:09:41;3.42;;;1.00;;
19312;SDS011;9791;50.820;4.406;2023-03-23T10:17:16;2.53;;;1.27;;
19312;SDS011;9791;50.820;4.406;2023-03-23T10:22:26;4.15;;;1.33;;
19312;SDS011;9791;50.820;4.406;2023-03-23T10:24:57;3.58;;;1.50;;
19312;SDS011;9791;50.820;4.406;2023-03-23T10:27:40;5.30;;;1.50;;
19312;SDS011;9791;50.820;4.406;2023-03-23T10:30:19;6.07;;;1.80;;
19312;SDS011;9791;50.820;4.406;2023-03-23T10:32:52;7.35;;;1.83;;
19312;SDS011;9791;50.820;4.406;2023-03-23T10:35:23;3.92;;;1.55;;
19312;SDS011;9791;50.820;4.406;2023-03-23T10:37:53;6.40;;;1.50;;
19312;SDS011;9791;50.820;4.406;2023-03-23T10:40:23;6.45;;;1.90;;
19312;SDS011;9791;50.820;4.406;2023-03-23T10:42:51;5.63;;;1.73;;
19312;SDS011;9791;50.820;4.406;2023-03-23T10:45:23;6.72;;;1.83;;
19312;SDS011;9791;50.820;4.406;2023-03-23T10:50:30;4.32;;;1.48;;
19312;SDS011;9791;50.820;4.406;2023-03-23T10:52:58;6.45;;;1.27;;
19312;SDS011;9791;50.820;4.406;2023-03-23T10:55:35;4.75;;;1.60;;
19312;SDS011;9791;50.820;4.406;2023-03-23T10:58:03;4.20;;;1.60;;
19312;SDS011;9791;50.820;4.406;2023-03-23T11:00:30;6.70;;;1.98;;
19312;SDS011;9791;50.820;4.406;2023-03-23T11:05:42;6.05;;;1.50;;
19312;SDS011;9791;50.820;4.406;2023-03-23T11:08:14;5.07;;;1.58;;
19312;SDS011;9791;50.820;4.406;2023-03-23T11:10:42;4.65;;;1.60;;
19312;SDS011;9791;50.820;4.406;2023-03-23T11:13:14;6.05;;;1.90;;
19312;SDS011;9791;50.820;4.406;2023-03-23T11:15:41;5.78;;;1.90;;
19312;SDS011;9791;50.820;4.406;2023-03-23T11:18:11;3.70;;;1.50;;
19312;SDS011;9791;50.820;4.406;2023-03-23T11:20:39;4.53;;;1.50;;
19312;SDS011;9791;50.820;4.406;2023-03-23T11:23:23;4.15;;;1.58;;
19312;SDS011;9791;50.820;4.406;2023-03-23T11:26:08;6.38;;;1.58;;
19312;SDS011;9791;50.820;4.406;2023-03-23T11:28:35;6.63;;;1.65;;
19312;SDS011;9791;50.820;4.406;2023-03-23T11:31:03;7.60;;;1.98;;
19312;SDS011;9791;50.820;4.406;2023-03-23T11:33:46;6.90;;;2.10;;
19312;SDS011;9791;50.820;4.406;2023-03-23T11:36:13;5.72;;;1.85;;
19312;SDS011;9791;50.820;4.406;2023-03-23T11:38:40;5.78;;;1.58;;
19312;SDS011;9791;50.820;4.406;2023-03-23T11:41:11;5.60;;;1.75;;
19312;SDS011;9791;50.820;4.406;2023-03-23T11:43:40;5.90;;;1.80;;
19312;SDS011;9791;50.820;4.406;2023-03-23T11:46:12;4.03;;;1.38;;
19312;SDS011;9791;50.820;4.406;2023-03-23T11:54:09;4.72;;;1.70;;
19312;SDS011;9791;50.820;4.406;2023-03-23T11:56:41;4.78;;;1.75;;
19312;SDS011;9791;50.820;4.406;2023-03-23T11:59:27;7.22;;;1.60;;
19312;SDS011;9791;50.820;4.406;2023-03-23T12:04:44;6.60;;;1.80;;
19312;SDS011;9791;50.820;4.406;2023-03-23T12:13:05;5.68;;;1.67;;
19312;SDS011;9791;50.820;4.406;2023-03-23T12:23:25;5.90;;;1.58;;
19312;SDS011;9791;50.820;4.406;2023-03-23T12:31:25;6.13;;;1.70;;
19312;SDS011;9791;50.820;4.406;2023-03-23T12:33:55;6.47;;;1.98;;
19312;SDS011;9791;50.820;4.406;2023-03-23T12:39:13;7.30;;;1.75;;
19312;SDS011;9791;50.820;4.406;2023-03-23T12:44:10;6.72;;;1.67;;
19312;SDS011;9791;50.820;4.406;2023-03-23T12:49:10;9.05;;;1.90;;
19312;SDS011;9791;50.820;4.406;2023-03-23T13:02:12;5.85;;;1.75;;
19312;SDS011;9791;50.820;4.406;2023-03-23T13:04:41;7.80;;;1.92;;
19312;SDS011;9791;50.820;4.406;2023-03-23T13:07:10;9.63;;;2.50;;
19312;SDS011;9791;50.820;4.406;2023-03-23T13:12:44;12.07;;;2.92;;
19312;SDS011;9791;50.820;4.406;2023-03-23T13:23:19;7.63;;;2.17;;
19312;SDS011;9791;50.820;4.406;2023-03-23T13:25:48;8.55;;;2.17;;
19312;SDS011;9791;50.820;4.406;2023-03-23T13:28:19;11.45;;;2.35;;
19312;SDS011;9791;50.820;4.406;2023-03-23T13:31:11;6.32;;;1.95;;
19312;SDS011;9791;50.820;4.406;2023-03-23T13:33:38;7.53;;;1.80;;
19312;SDS011;9791;50.820;4.406;2023-03-23T13:36:10;7.90;;;2.20;;
19312;SDS011;9791;50.820;4.406;2023-03-23T13:38:36;7.65;;;2.42;;
19312;SDS011;9791;50.820;4.406;2023-03-23T13:41:06;9.05;;;3.15;;
19312;SDS011;9791;50.820;4.406;2023-03-23T13:43:33;8.93;;;2.47;;
19312;SDS011;9791;50.820;4.406;2023-03-23T13:46:11;9.60;;;2.80;;
19312;SDS011;9791;50.820;4.406;2023-03-23T13:48:42;5.88;;;1.75;;
19312;SDS011;9791;50.820;4.406;2023-03-23T13:51:25;8.93;;;2.25;;
19312;SDS011;9791;50.820;4.406;2023-03-23T13:54:03;7.45;;;1.92;;
19312;SDS011;9791;50.820;4.406;2023-03-23T13:56:35;9.00;;;2.08;;
19312;SDS011;9791;50.820;4.406;2023-03-23T13:59:13;8.57;;;2.10;;
19312;SDS011;9791;50.820;4.406;2023-03-23T14:01:39;7.60;;;2.40;;
19312;SDS011;9791;50.820;4.406;2023-03-23T14:04:30;7.03;;;2.10;;
19312;SDS011;9791;50.820;4.406;2023-03-23T14:06:52;10.15;;;2.28;;
19312;SDS011;9791;50.820;4.406;2023-03-23T14:09:20;8.88;;;2.10;;
19312;SDS011;9791;50.820;4.406;2023-03-23T14:12:14;6.38;;;1.60;;
19312;SDS011;9791;50.820;4.406;2023-03-23T14:14:41;15.05;;;2.83;;
19312;SDS011;9791;50.820;4.406;2023-03-23T14:19:47;9.00;;;2.40;;
19312;SDS011;9791;50.820;4.406;2023-03-23T14:22:17;9.20;;;2.20;;
19312;SDS011;9791;50.820;4.406;2023-03-23T14:24:44;7.63;;;2.42;;
19312;SDS011;9791;50.820;4.406;2023-03-23T14:27:12;8.55;;;2.40;;
19312;SDS011;9791;50.820;4.406;2023-03-23T14:29:39;8.38;;;2.10;;
19312;SDS011;9791;50.820;4.406;2023-03-23T14:32:06;8.65;;;2.70;;
19312;SDS011;9791;50.820;4.406;2023-03-23T14:34:34;7.57;;;2.53;;
19312;SDS011;9791;50.820;4.406;2023-03-23T14:37:00;9.48;;;2.78;;
19312;SDS011;9791;50.820;4.406;2023-03-23T14:39:28;11.82;;;3.00;;
19312;SDS011;9791;50.820;4.406;2023-03-23T14:41:56;8.02;;;2.63;;
19312;SDS011;9791;50.820;4.406;2023-03-23T14:44:26;9.43;;;2.35;;
19312;SDS011;9791;50.820;4.406;2023-03-23T14:46:54;7.65;;;2.53;;
19312;SDS011;9791;50.820;4.406;2023-03-23T14:49:25;7.28;;;2.33;;
19312;SDS011;9791;50.820;4.406;2023-03-23T14:51:54;9.63;;;2.55;;
19312;SDS011;9791;50.820;4.406;2023-03-23T14:54:25;6.93;;;2.33;;
19312;SDS011;9791;50.820;4.406;2023-03-23T14:56:51;8.23;;;2.63;;
19312;SDS011;9791;50.820;4.406;2023-03-23T14:59:17;10.27;;;2.95;;
19312;SDS011;9791;50.820;4.406;2023-03-23T15:01:45;7.38;;;2.95;;
19312;SDS011;9791;50.820;4.406;2023-03-23T15:04:14;8.40;;;2.83;;
19312;SDS011;9791;50.820;4.406;2023-03-23T15:06:42;10.38;;;2.63;;
19312;SDS011;9791;50.820;4.406;2023-03-23T15:09:22;7.68;;;2.45;;
19312;SDS011;9791;50.820;4.406;2023-03-23T15:11:53;7.85;;;2.50;;
19312;SDS011;9791;50.820;4.406;2023-03-23T15:14:21;9.05;;;2.72;;
19312;SDS011;9791;50.820;4.406;2023-03-23T15:16:51;7.88;;;2.28;;
19312;SDS011;9791;50.820;4.406;2023-03-23T15:19:19;10.07;;;2.60;;
19312;SDS011;9791;50.820;4.406;2023-03-23T15:24:27;9.57;;;3.03;;
19312;SDS011;9791;50.820;4.406;2023-03-23T15:27:02;7.03;;;2.13;;
19312;SDS011;9791;50.820;4.406;2023-03-23T15:29:28;11.90;;;2.83;;
19312;SDS011;9791;50.820;4.406;2023-03-23T15:31:55;7.88;;;2.88;;
19312;SDS011;9791;50.820;4.406;2023-03-23T15:34:27;7.38;;;2.67;;
19312;SDS011;9791;50.820;4.406;2023-03-23T15:36:55;9.27;;;2.80;;
19312;SDS011;9791;50.820;4.406;2023-03-23T15:39:21;8.80;;;2.90;;
19312;SDS011;9791;50.820;4.406;2023-03-23T15:41:48;11.80;;;3.38;;
19312;SDS011;9791;50.820;4.406;2023-03-23T15:44:20;11.88;;;2.65;;
19312;SDS011;9791;50.820;4.406;2023-03-23T15:46:51;14.55;;;3.03;;
19312;SDS011;9791;50.820;4.406;2023-03-23T15:49:17;9.75;;;2.53;;
19312;SDS011;9791;50.820;4.406;2023-03-23T15:51:43;9.07;;;2.78;;
19312;SDS011;9791;50.820;4.406;2023-03-23T15:54:12;8.73;;;2.40;;
19312;SDS011;9791;50.820;4.406;2023-03-23T15:56:39;9.85;;;2.45;;
19312;SDS011;9791;50.820;4.406;2023-03-23T15:59:05;7.13;;;2.90;;
19312;SDS011;9791;50.820;4.406;2023-03-23T16:01:31;7.43;;;2.17;;
19312;SDS011;9791;50.820;4.406;2023-03-23T16:03:58;8.90;;;2.97;;
19312;SDS011;9791;50.820;4.406;2023-03-23T16:06:26;7.47;;;2.60;;
19312;SDS011;9791;50.820;4.406;2023-03-23T16:08:53;8.20;;;2.58;;
19312;SDS011;9791;50.820;4.406;2023-03-23T16:11:20;12.75;;;3.58;;
19312;SDS011;9791;50.820;4.406;2023-03-23T16:13:47;6.50;;;2.45;;
19312;SDS011;9791;50.820;4.406;2023-03-23T16:16:15;10.60;;;2.67;;
19312;SDS011;9791;50.820;4.406;2023-03-23T16:18:41;10.32;;;2.97;;
19312;SDS011;9791;50.820;4.406;2023-03-23T16:21:07;9.95;;;2.45;;
19312;SDS011;9791;50.820;4.406;2023-03-23T16:23:33;6.40;;;2.28;;
19312;SDS011;9791;50.820;4.406;2023-03-23T16:26:00;16.92;;;2.85;;
19312;SDS011;9791;50.820;4.406;2023-03-23T16:28:26;9.50;;;3.00;;
19312;SDS011;9791;50.820;4.406;2023-03-23T16:30:52;9.18;;;2.58;;
19312;SDS011;9791;50.820;4.406;2023-03-23T16:33:18;10.25;;;2.83;;
19312;SDS011;9791;50.820;4.406;2023-03-23T16:35:44;9.52;;;2.58;;
19312;SDS011;9791;50.820;4.406;2023-03-23T16:38:13;11.88;;;2.63;;
19312;SDS011;9791;50.820;4.406;2023-03-23T16:40:40;8.27;;;2.28;;
19312;SDS011;9791;50.820;4.406;2023-03-23T16:43:07;11.27;;;2.83;;
19312;SDS011;9791;50.820;4.406;2023-03-23T16:45:33;11.05;;;2.75;;
19312;SDS011;9791;50.820;4.406;2023-03-23T16:47:59;8.45;;;2.60;;
19312;SDS011;9791;50.820;4.406;2023-03-23T16:50:26;9.10;;;2.90;;
19312;SDS011;9791;50.820;4.406;2023-03-23T16:52:53;6.45;;;2.20;;